Time;durP1;ratioP1;P1;durP2;ratioP2;P2;SDS_P1;SDS_P2;PMS_P1;PMS_P2;Temp;Humidity;BMP_temperature;BMP_pressure;BME280_temperature;BME280_humidity;BME280_pressure;Samples;Min_cycle;Max_cycle;Signal;HPM_P1;HPM_P2
2022/11/19 00:01:44;;;;;;;0.55;0.40;;;;;;;12.42;67.28;92876.50;5093965;28;20087;-74
2022/11/19 00:04:09;;;;;;;2.47;0.73;;;;;;;12.59;67.52;92868.16;5097210;28;20032;-75
2022/11/19 00:06:35;;;;;;;0.70;0.70;;;;;;;12.43;66.92;92846.84;5091704;28;20043;-76
2022/11/19 00:09:00;;;;;;;0.75;0.50;;;;;;;12.61;67.03;92857.94;5096357;28;20078;-77
2022/11/19 00:14:13;;;;;;;0.82;0.60;;;;;;;12.53;65.58;92890.09;5093101;28;20031;-75
2022/11/19 00:16:39;;;;;;;0.40;0.40;;;;;;;12.49;64.73;92879.34;5095188;28;20032;-75
2022/11/19 00:19:04;;;;;;;1.00;0.60;;;;;;;12.58;63.91;92887.94;5097730;28;20050;-76
2022/11/19 00:21:30;;;;;;;1.02;0.60;;;;;;;12.52;63.94;92886.63;5096657;28;20119;-76
2022/11/19 00:23:56;;;;;;;0.40;0.40;;;;;;;12.43;64.15;92892.16;5097458;28;20043;-77
2022/11/19 00:26:22;;;;;;;0.30;0.30;;;;;;;12.30;64.70;92888.06;5095954;28;20036;-76
2022/11/19 00:28:48;;;;;;;0.60;0.60;;;;;;;12.17;64.37;92861.84;5093567;28;20025;-76
2022/11/19 00:31:14;;;;;;;1.50;0.50;;;;;;;11.92;65.77;92843.38;5095592;28;20193;-76
2022/11/19 00:33:41;;;;;;;0.40;0.40;;;;;;;11.92;65.95;92867.34;5098425;28;20032;-77
2022/11/19 00:36:10;;;;;;;0.50;0.50;;;;;;;12.17;65.72;92881.28;5097857;28;20114;-75
2022/11/19 00:38:36;;;;;;;0.45;0.45;;;;;;;12.26;64.92;92879.22;5097940;28;20024;-75
2022/11/19 00:41:02;;;;;;;0.40;0.40;;;;;;;12.31;65.26;92883.50;5095464;28;20057;-76
2022/11/19 00:43:46;;;;;;;0.60;0.60;;;;;;;12.40;64.94;92860.88;5096240;28;20029;-74
2022/11/19 00:46:15;;;;;;;0.40;0.40;;;;;;;12.56;64.20;92879.50;5093061;28;20043;-76
2022/11/19 00:48:40;;;;;;;0.40;0.40;;;;;;;12.24;64.03;92832.66;5104402;28;20024;-77
2022/11/19 00:51:07;;;;;;;1.15;0.50;;;;;;;12.63;63.82;92874.34;5093359;28;20105;-77
2022/11/19 00:53:33;;;;;;;0.40;0.40;;;;;;;12.68;63.05;92868.75;5096640;28;20048;-75
2022/11/19 00:56:00;;;;;;;0.40;0.40;;;;;;;12.76;62.61;92872.34;5092889;28;20057;-75
2022/11/19 00:58:26;;;;;;;0.40;0.40;;;;;;;12.73;62.07;92881.03;5109724;28;20035;-76
2022/11/19 01:00:51;;;;;;;1.30;0.45;;;;;;;12.66;62.19;92857.66;5094496;28;20028;-75
2022/11/19 01:03:16;;;;;;;0.40;0.40;;;;;;;12.87;61.75;92868.00;5097746;28;20074;-76
2022/11/19 01:05:42;;;;;;;0.43;0.43;;;;;;;12.84;61.17;92853.47;5098842;28;20024;-76
2022/11/19 01:08:07;;;;;;;0.40;0.40;;;;;;;12.97;61.07;92867.44;5096358;28;20036;-75
2022/11/19 01:10:34;;;;;;;0.40;0.40;;;;;;;12.72;60.49;92864.25;5096133;28;20012;-75
2022/11/19 01:15:47;;;;;;;0.30;0.30;;;;;;;12.79;60.33;92855.63;5097758;28;20031;-75
2022/11/19 01:18:13;;;;;;;0.32;0.32;;;;;;;12.86;60.54;92848.53;5097528;28;20120;-75
2022/11/19 01:20:38;;;;;;;0.38;0.38;;;;;;;12.85;60.36;92848.91;5093294;28;20062;-75
2022/11/19 01:23:03;;;;;;;1.42;1.10;;;;;;;12.96;60.10;92854.47;5087602;28;20041;-75
2022/11/19 01:25:29;;;;;;;0.82;0.50;;;;;;;12.80;60.55;92847.28;5094727;28;20024;-74
2022/11/19 01:27:56;;;;;;;1.70;0.50;;;;;;;12.75;60.42;92844.91;5091787;28;20055;-76
2022/11/19 01:30:21;;;;;;;0.90;0.60;;;;;;;12.78;61.49;92870.09;5094835;28;20032;-75
2022/11/19 01:32:46;;;;;;;0.68;0.63;;;;;;;12.66;61.54;92868.34;5093498;28;20052;-75
2022/11/19 01:35:12;;;;;;;0.50;0.50;;;;;;;12.51;62.17;92876.34;5091129;28;20096;-75
2022/11/19 01:37:37;;;;;;;0.68;0.68;;;;;;;12.12;62.61;92816.81;5091582;28;20061;-76
2022/11/19 01:40:03;;;;;;;0.60;0.60;;;;;;;12.41;62.46;92859.75;5092207;28;20031;-75
2022/11/19 01:42:49;;;;;;;0.57;0.57;;;;;;;11.96;62.24;92809.59;5091385;28;20787;-76
2022/11/19 01:45:33;;;;;;;0.98;0.60;;;;;;;12.53;62.48;92896.19;5092989;28;20032;-75
2022/11/19 01:48:09;;;;;;;1.20;0.70;;;;;;;12.56;61.79;92890.19;5099588;28;20048;-76
2022/11/19 01:50:40;;;;;;;1.95;0.75;;;;;;;12.51;61.06;92874.44;5095025;28;20040;-76
2022/11/19 01:53:08;;;;;;;4.35;1.10;;;;;;;12.18;60.87;92858.81;5094782;28;20032;-76
2022/11/19 01:55:34;;;;;;;1.25;1.10;;;;;;;12.14;62.49;92894.50;5090335;28;20028;-75
2022/11/19 01:58:02;;;;;;;3.42;0.77;;;;;;;12.04;64.02;92880.56;5091982;28;20044;-75
2022/11/19 02:00:28;;;;;;;1.70;1.00;;;;;;;12.12;63.95;92886.09;5092717;28;20029;-75
2022/11/19 02:02:54;;;;;;;2.70;0.98;;;;;;;11.96;63.72;92875.44;5092851;28;20120;-75
2022/11/19 02:05:20;;;;;;;1.02;0.90;;;;;;;11.97;62.64;92875.09;5092988;28;20048;-75
2022/11/19 02:07:53;;;;;;;2.03;0.90;;;;;;;12.02;63.31;92877.50;5093139;28;20020;-75
2022/11/19 02:10:24;;;;;;;4.68;0.95;;;;;;;12.04;63.98;92864.59;5085309;28;20021;-77
2022/11/19 02:12:57;;;;;;;1.83;1.20;;;;;;;12.18;64.39;92884.69;5082736;28;20048;-75
2022/11/19 02:15:51;;;;;;;1.00;0.88;;;;;;;12.28;64.04;92894.84;5091512;28;20032;-76
2022/11/19 02:18:29;;;;;;;2.15;0.90;;;;;;;12.39;63.21;92885.97;5093206;28;20039;-75
2022/11/19 02:21:19;;;;;;;1.67;1.13;;;;;;;11.96;64.42;92875.44;5088923;28;20051;-74
2022/11/19 02:24:14;;;;;;;4.25;1.00;;;;;;;12.19;64.26;92896.91;5081755;28;20044;-75
2022/11/19 02:27:04;;;;;;;1.25;1.10;;;;;;;12.08;64.70;92914.56;5085306;28;20038;-74
2022/11/19 02:29:30;;;;;;;1.98;1.27;;;;;;;12.11;63.49;92919.19;5088023;28;20035;-75
2022/11/19 02:32:10;;;;;;;2.15;0.70;;;;;;;11.66;60.43;92887.59;5088511;28;20036;-75
2022/11/19 02:34:45;;;;;;;0.75;0.75;;;;;;;11.81;61.88;92914.25;5090626;28;20020;-75
2022/11/19 02:37:19;;;;;;;1.30;0.93;;;;;;;11.89;63.71;92931.97;5100601;28;20113;-75
2022/11/19 02:39:50;;;;;;;2.13;1.17;;;;;;;11.39;64.99;92937.84;5093764;28;20035;-74
2022/11/19 02:42:38;;;;;;;1.38;0.60;;;;;;;11.52;65.11;92946.59;5094381;28;20051;-74
2022/11/19 02:45:10;;;;;;;2.20;0.75;;;;;;;11.39;65.45;92945.06;5060187;28;20062;-76
2022/11/19 02:47:40;;;;;;;1.75;0.90;;;;;;;11.01;66.51;92924.97;5091596;28;20037;-75
2022/11/19 02:50:20;;;;;;;2.83;0.95;;;;;;;11.16;66.32;92937.56;5104422;28;20039;-76
2022/11/19 02:52:46;;;;;;;1.40;1.00;;;;;;;11.16;66.33;92958.88;5092832;28;20076;-75
2022/11/19 02:55:13;;;;;;;0.90;0.80;;;;;;;10.89;67.74;92970.22;5093526;28;20027;-76
2022/11/19 02:57:42;;;;;;;0.70;0.70;;;;;;;11.13;66.90;92958.78;5089141;28;20059;-77
2022/11/19 03:05:57;;;;;;;0.98;0.77;;;;;;;10.44;69.06;92969.59;5093400;28;20039;-74
2022/11/19 03:08:22;;;;;;;0.80;0.80;;;;;;;10.91;67.95;92986.63;5095649;28;20033;-75
2022/11/19 03:11:01;;;;;;;0.73;0.73;;;;;;;10.37;69.09;92964.06;5092836;28;20482;-76
2022/11/19 03:17:05;;;;;;;1.63;1.05;;;;;;;10.46;68.72;92944.22;5093709;28;20458;-75
2022/11/19 03:19:33;;;;;;;1.20;1.00;;;;;;;11.00;67.68;92991.84;5098117;28;20471;-74
2022/11/19 03:22:20;;;;;;;3.75;0.95;;;;;;;11.12;66.82;93010.44;5103796;28;20039;-75
2022/11/19 03:25:15;;;;;;;0.93;0.85;;;;;;;11.04;66.68;92998.81;5092553;28;20052;-74
2022/11/19 03:27:44;;;;;;;0.80;0.80;;;;;;;10.86;66.77;92976.22;5079791;28;20480;-75
2022/11/19 03:30:11;;;;;;;1.15;0.80;;;;;;;11.10;66.28;92981.50;4982218;28;20038;-74
2022/11/19 03:32:46;;;;;;;1.00;0.80;;;;;;;11.41;66.12;93009.38;5057647;28;20041;-75
2022/11/19 03:35:18;;;;;;;2.13;0.93;;;;;;;11.51;65.07;93011.59;5078373;28;20036;-75
2022/11/19 03:37:49;;;;;;;2.00;1.20;;;;;;;11.40;64.93;93000.59;5076521;28;20027;-75
2022/11/19 03:40:18;;;;;;;1.05;0.77;;;;;;;11.64;64.24;93009.69;5055149;28;20053;-75
2022/11/19 03:42:48;;;;;;;2.15;1.10;;;;;;;11.62;64.04;93014.56;4976207;28;20460;-76
2022/11/19 03:45:26;;;;;;;3.40;1.60;;;;;;;11.76;63.38;93012.28;4972867;28;20091;-75
2022/11/19 03:47:54;;;;;;;1.95;1.20;;;;;;;11.89;62.60;93017.22;5083202;28;20056;-75
2022/11/19 03:50:36;;;;;;;1.90;1.38;;;;;;;11.80;62.44;92987.28;5097484;28;20295;-75
2022/11/19 03:53:02;;;;;;;2.33;1.70;;;;;;;12.03;61.62;93025.59;5096200;28;20036;-75
2022/11/19 03:55:39;;;;;;;2.35;1.40;;;;;;;12.09;61.72;93030.69;5097665;28;20029;-76
2022/11/19 03:58:08;;;;;;;3.75;1.80;;;;;;;11.79;61.65;92972.41;5096296;28;20032;-75
2022/11/19 04:00:33;;;;;;;3.42;1.73;;;;;;;12.15;61.19;93030.09;5098630;28;20017;-75
2022/11/19 04:02:59;;;;;;;2.30;1.50;;;;;;;12.20;60.80;93021.06;5110629;28;20106;-74
2022/11/19 04:05:25;;;;;;;1.80;1.52;;;;;;;12.15;60.43;93024.78;5099925;28;20051;-76
2022/11/19 04:07:50;;;;;;;1.88;1.60;;;;;;;12.17;60.41;93040.44;5096400;28;20637;-75
2022/11/19 04:10:15;;;;;;;4.10;1.80;;;;;;;12.23;60.25;93036.38;5097093;28;20040;-74
2022/11/19 04:12:41;;;;;;;1.98;1.70;;;;;;;12.25;59.83;93036.81;5094486;28;20023;-75
2022/11/19 04:15:08;;;;;;;1.20;1.05;;;;;;;12.03;59.92;93017.59;5097783;28;20028;-77
2022/11/19 04:17:33;;;;;;;3.33;1.40;;;;;;;12.11;59.56;93039.13;5093050;28;20033;-74
2022/11/19 04:19:59;;;;;;;4.85;1.45;;;;;;;12.21;59.51;93066.06;5096225;28;20047;-75
2022/11/19 04:22:24;;;;;;;2.72;1.60;;;;;;;12.24;59.27;93064.59;5098540;28;20051;-76
2022/11/19 04:24:50;;;;;;;5.18;2.17;;;;;;;12.20;59.59;93064.50;5096488;28;20035;-75
2022/11/19 04:27:15;;;;;;;6.03;2.15;;;;;;;12.20;59.94;93063.72;5099185;28;20000;-75
2022/11/19 04:29:40;;;;;;;3.70;1.95;;;;;;;12.21;59.37;93060.72;5097275;28;20024;-76
2022/11/19 04:32:06;;;;;;;4.25;2.05;;;;;;;12.22;59.73;93066.84;5098272;28;20054;-77
2022/11/19 04:34:31;;;;;;;4.50;1.90;;;;;;;12.10;59.23;93048.22;5095806;28;20087;-76
2022/11/19 04:36:57;;;;;;;3.55;1.98;;;;;;;12.05;59.61;93041.25;5093736;28;20020;-75
2022/11/19 04:39:22;;;;;;;4.05;1.88;;;;;;;12.27;60.00;93077.25;5097203;28;20540;-75
2022/11/19 04:41:47;;;;;;;2.30;1.60;;;;;;;12.29;59.88;93085.69;5093560;28;20041;-76
2022/11/19 04:44:13;;;;;;;4.15;1.60;;;;;;;12.22;59.99;93080.94;5091537;28;20035;-76
2022/11/19 04:46:38;;;;;;;4.70;1.70;;;;;;;12.11;59.93;93065.78;5089253;28;20028;-76
2022/11/19 04:49:04;;;;;;;3.50;1.52;;;;;;;12.08;61.11;93087.78;5090906;28;20059;-76
2022/11/19 04:51:29;;;;;;;2.85;1.63;;;;;;;12.00;61.16;93089.47;5098503;28;20032;-75
2022/11/19 04:53:54;;;;;;;2.53;1.55;;;;;;;12.04;60.85;93088.44;5096317;28;20067;-75
2022/11/19 04:56:20;;;;;;;1.92;1.40;;;;;;;11.97;60.79;93072.28;5097347;28;20050;-76
2022/11/19 04:58:45;;;;;;;1.80;1.58;;;;;;;11.81;61.27;93068.78;5094338;28;20039;-75
2022/11/19 05:01:10;;;;;;;2.15;1.60;;;;;;;12.06;61.11;93098.00;5093703;28;20037;-75
2022/11/19 05:03:36;;;;;;;2.63;1.95;;;;;;;11.81;61.25;93084.75;5089501;28;20037;-74
2022/11/19 05:06:01;;;;;;;3.45;2.15;;;;;;;11.74;61.42;93081.88;5094697;28;20036;-74
2022/11/19 05:08:27;;;;;;;2.42;1.42;;;;;;;11.92;60.67;93106.38;5090695;28;20036;-74
2022/11/19 05:10:52;;;;;;;2.35;1.45;;;;;;;11.86;60.58;93097.06;5092623;28;20089;-75
2022/11/19 05:13:18;;;;;;;3.65;1.75;;;;;;;12.06;60.18;93135.31;5095959;28;20084;-75
2022/11/19 05:15:43;;;;;;;3.03;1.92;;;;;;;11.90;59.99;93121.91;5104571;28;20046;-76
2022/11/19 05:18:08;;;;;;;4.25;2.47;;;;;;;12.12;59.73;93160.63;5093574;28;20036;-76
2022/11/19 05:20:34;;;;;;;3.83;1.65;;;;;;;11.98;59.33;93148.41;5096018;28;20060;-76
2022/11/19 05:22:59;;;;;;;2.10;1.90;;;;;;;12.15;59.07;93174.03;5096901;28;20032;-76
2022/11/19 05:25:25;;;;;;;2.92;1.58;;;;;;;12.18;58.74;93188.56;5097078;28;20048;-75
2022/11/19 05:27:50;;;;;;;7.38;4.25;;;;;;;12.17;58.68;93198.47;5094632;28;20030;-76
2022/11/19 05:30:16;;;;;;;5.45;3.72;;;;;;;11.90;59.56;93173.31;5093454;28;20039;-75
2022/11/19 05:32:41;;;;;;;4.32;2.88;;;;;;;11.93;59.47;93183.28;5094588;28;20040;-75
2022/11/19 05:35:07;;;;;;;5.00;2.90;;;;;;;11.85;59.35;93194.06;5096078;28;20040;-76
2022/11/19 05:37:33;;;;;;;4.25;2.47;;;;;;;11.88;59.86;93199.50;5095752;28;20029;-75
2022/11/19 05:39:58;;;;;;;3.33;1.90;;;;;;;11.94;59.78;93206.16;5097268;28;20016;-76
2022/11/19 05:42:23;;;;;;;4.72;2.50;;;;;;;11.93;60.13;93220.59;5098075;28;20021;-76
2022/11/19 05:44:49;;;;;;;3.28;2.72;;;;;;;11.90;60.35;93205.28;5094404;28;20040;-76
2022/11/19 05:47:15;;;;;;;4.60;2.67;;;;;;;12.00;60.47;93225.38;5095788;28;20041;-75
2022/11/19 05:49:41;;;;;;;4.93;2.67;;;;;;;11.88;60.07;93209.41;5096896;28;20032;-75
2022/11/19 05:52:06;;;;;;;3.28;2.15;;;;;;;12.08;59.40;93235.13;5092960;28;20043;-76
2022/11/19 05:54:31;;;;;;;2.75;1.80;;;;;;;11.92;59.51;93202.31;5092890;28;20036;-76
2022/11/19 05:56:57;;;;;;;3.65;2.45;;;;;;;11.81;59.47;93177.22;5095642;28;20044;-75
2022/11/19 05:59:22;;;;;;;4.22;3.00;;;;;;;12.10;59.32;93216.13;5092761;28;20521;-75
2022/11/19 06:01:48;;;;;;;6.65;3.50;;;;;;;11.82;59.48;93165.44;5092211;28;20036;-76
2022/11/19 06:04:13;;;;;;;3.92;2.70;;;;;;;12.02;59.73;93191.97;5094118;28;20024;-74
2022/11/19 06:06:38;;;;;;;2.35;1.95;;;;;;;12.22;59.72;93224.13;5094469;28;20039;-76
2022/11/19 06:09:04;;;;;;;4.63;2.13;;;;;;;12.10;59.64;93214.25;5093041;28;20040;-75
2022/11/19 06:11:49;;;;;;;2.63;1.77;;;;;;;12.26;59.54;93239.09;5095887;28;20127;-75
2022/11/19 06:14:25;;;;;;;6.55;2.03;;;;;;;12.27;58.92;93248.63;5093203;28;20031;-75
2022/11/19 06:16:56;;;;;;;1.92;1.42;;;;;;;12.26;58.95;93265.75;5096822;28;20031;-76
2022/11/19 06:19:23;;;;;;;3.28;1.60;;;;;;;12.26;58.96;93267.66;5094844;28;20641;-76
2022/11/19 06:21:49;;;;;;;2.88;1.45;;;;;;;12.04;58.71;93243.03;5094414;28;20114;-75
2022/11/19 06:24:15;;;;;;;2.53;1.30;;;;;;;11.92;59.16;93227.06;5096070;28;20381;-75
2022/11/19 06:26:41;;;;;;;2.72;1.70;;;;;;;12.27;59.44;93288.63;5096414;28;20058;-76
2022/11/19 06:29:07;;;;;;;5.28;2.80;;;;;;;12.27;59.43;93298.53;5095334;28;20093;-76
2022/11/19 06:31:33;;;;;;;4.68;2.70;;;;;;;12.24;59.69;93293.84;5093502;28;20078;-76
2022/11/19 06:33:59;;;;;;;5.80;3.28;;;;;;;12.29;59.35;93306.97;5096741;28;20084;-76
2022/11/19 06:36:25;;;;;;;4.20;2.92;;;;;;;12.04;59.64;93272.34;5094386;28;20087;-77
2022/11/19 06:38:50;;;;;;;5.57;3.60;;;;;;;12.10;59.47;93294.22;5098291;28;20048;-76
2022/11/19 06:41:16;;;;;;;5.38;3.08;;;;;;;12.19;59.58;93302.88;5092730;28;20036;-75
2022/11/19 06:43:42;;;;;;;5.43;3.47;;;;;;;12.12;59.82;93304.56;5094456;28;20040;-75
2022/11/19 06:46:08;;;;;;;5.30;2.88;;;;;;;12.12;60.07;93313.31;5095227;28;20028;-76
2022/11/19 06:48:34;;;;;;;3.63;2.95;;;;;;;12.14;60.29;93312.97;5099776;28;20028;-75
2022/11/19 06:51:00;;;;;;;4.07;2.58;;;;;;;12.03;60.50;93305.41;5097537;28;20132;-76
2022/11/19 06:53:26;;;;;;;8.52;4.68;;;;;;;12.18;61.06;93325.28;5094776;28;20047;-76
2022/11/19 06:56:10;;;;;;;6.07;3.58;;;;;;;12.21;61.42;93326.53;5091235;28;20037;-75
2022/11/19 06:58:35;;;;;;;3.83;3.15;;;;;;;12.27;61.66;93346.53;5100560;28;20028;-75
2022/11/19 07:01:01;;;;;;;6.45;4.10;;;;;;;12.11;61.93;93317.09;5098912;28;20016;-77
2022/11/19 07:03:26;;;;;;;5.00;3.28;;;;;;;12.35;62.10;93332.28;5098807;28;20027;-75
2022/11/19 07:06:01;;;;;;;7.50;3.20;;;;;;;12.19;62.41;93313.53;5097045;28;20520;-76
2022/11/19 07:08:27;;;;;;;9.27;2.85;;;;;;;12.24;62.69;93339.97;5099634;28;20052;-76
2022/11/19 07:10:53;;;;;;;3.40;2.20;;;;;;;12.25;62.95;93343.41;5096192;28;20044;-75
2022/11/19 07:13:18;;;;;;;5.10;2.53;;;;;;;12.28;62.88;93346.19;5097633;28;20039;-75
2022/11/19 07:15:43;;;;;;;5.13;3.47;;;;;;;12.20;62.83;93323.09;5095973;28;20039;-75
2022/11/19 07:18:09;;;;;;;6.45;3.20;;;;;;;12.34;63.35;93346.72;5094374;28;20787;-76
2022/11/19 07:20:35;;;;;;;6.93;4.18;;;;;;;12.41;63.11;93353.06;5093892;28;20043;-76
2022/11/19 07:23:00;;;;;;;9.00;5.03;;;;;;;12.25;63.05;93322.09;5099422;28;20515;-76
2022/11/19 07:25:27;;;;;;;9.60;6.00;;;;;;;12.49;63.27;93338.06;5097008;28;20243;-76
2022/11/19 07:27:52;;;;;;;14.15;7.43;;;;;;;12.39;63.63;93315.28;5099610;28;20050;-75
2022/11/19 07:30:18;;;;;;;11.48;6.88;;;;;;;12.58;63.83;93341.41;5099953;28;20071;-76
2022/11/19 07:32:43;;;;;;;12.82;7.72;;;;;;;12.54;64.09;93324.47;5096079;28;20039;-76
2022/11/19 07:35:09;;;;;;;12.93;5.78;;;;;;;12.65;64.27;93341.63;5097294;28;20088;-75
2022/11/19 07:37:35;;;;;;;10.57;5.82;;;;;;;12.52;64.54;93318.69;5096551;28;20067;-76
2022/11/19 07:40:01;;;;;;;7.75;3.40;;;;;;;12.24;64.29;93325.84;5094581;28;20047;-75
2022/11/19 07:45:11;;;;;;;6.38;4.18;;;;;;;12.50;64.20;93344.94;5095487;28;20218;-75
2022/11/19 07:47:36;;;;;;;12.68;6.20;;;;;;;12.34;65.39;93352.84;5093246;28;20040;-76
2022/11/19 07:50:03;;;;;;;9.85;5.05;;;;;;;12.09;66.23;93339.84;5098327;28;20041;-75
2022/11/19 07:52:29;;;;;;;8.25;4.97;;;;;;;12.29;66.18;93341.63;5098382;28;20063;-74
2022/11/19 07:54:54;;;;;;;12.05;6.20;;;;;;;12.28;65.50;93354.19;5096620;28;20050;-74
2022/11/19 07:57:20;;;;;;;10.00;5.15;;;;;;;11.99;66.14;93323.19;5099265;28;20075;-75
2022/11/19 07:59:45;;;;;;;9.35;4.97;;;;;;;12.33;66.01;93359.28;5103907;28;20119;-76
2022/11/19 08:02:11;;;;;;;10.75;5.47;;;;;;;12.50;65.34;93371.63;5089585;28;20032;-75
2022/11/19 08:04:37;;;;;;;7.32;5.00;;;;;;;12.57;65.28;93365.69;5090176;28;20507;-75
2022/11/19 08:07:02;;;;;;;4.63;2.75;;;;;;;12.62;64.44;93365.50;5100963;28;20058;-76
2022/11/19 08:09:28;;;;;;;5.85;3.88;;;;;;;12.68;64.39;93372.16;5094330;28;20031;-74
2022/11/19 08:11:53;;;;;;;4.68;3.00;;;;;;;12.64;63.84;93364.06;5093262;28;20044;-75
2022/11/19 08:14:18;;;;;;;5.20;3.05;;;;;;;12.60;64.10;93384.53;5093136;28;20042;-74
2022/11/19 08:19:28;;;;;;;4.82;3.25;;;;;;;12.86;63.99;93373.47;5092471;28;20626;-75
2022/11/19 08:21:53;;;;;;;5.00;3.50;;;;;;;12.99;63.75;93395.56;5093059;28;20024;-74
2022/11/19 08:24:19;;;;;;;5.45;3.72;;;;;;;12.97;63.69;93392.47;5090494;28;20028;-75
2022/11/19 08:26:46;;;;;;;4.53;3.83;;;;;;;12.35;63.04;93321.63;5094619;28;20047;-74
2022/11/19 08:29:13;;;;;;;4.63;3.67;;;;;;;12.86;63.13;93362.78;5092003;28;20043;-75
2022/11/19 08:31:39;;;;;;;4.07;3.33;;;;;;;13.18;62.62;93382.38;5094718;28;20032;-74
2022/11/19 08:34:05;;;;;;;4.80;4.00;;;;;;;13.32;62.16;93396.13;5090798;28;20400;-74
2022/11/19 08:36:30;;;;;;;4.20;3.75;;;;;;;13.42;61.49;93390.31;5080775;28;20054;-75
2022/11/19 08:38:59;;;;;;;5.22;4.20;;;;;;;13.48;61.06;93394.31;5083199;28;20063;-75
2022/11/19 08:44:10;;;;;;;6.15;4.05;;;;;;;13.67;60.53;93383.78;5085931;28;20100;-75
2022/11/19 08:46:36;;;;;;;7.20;4.03;;;;;;;13.68;60.14;93371.97;5081572;28;20041;-75
2022/11/19 08:49:02;;;;;;;5.35;3.83;;;;;;;13.90;59.44;93394.66;5078656;28;20030;-75
2022/11/19 08:51:27;;;;;;;6.38;5.30;;;;;;;13.88;59.25;93380.09;5083116;28;20214;-74
2022/11/19 08:53:53;;;;;;;5.32;4.20;;;;;;;14.00;58.69;93393.38;5084649;28;20036;-75
2022/11/19 08:56:19;;;;;;;6.75;5.13;;;;;;;13.83;58.09;93366.97;5083486;28;20055;-75
2022/11/19 08:58:45;;;;;;;8.80;7.43;;;;;;;13.95;58.15;93397.06;5083786;28;20020;-76
2022/11/19 09:01:12;;;;;;;5.50;4.70;;;;;;;13.95;58.59;93389.06;5085284;28;20036;-74
2022/11/19 09:03:37;;;;;;;4.82;4.13;;;;;;;14.07;58.65;93406.94;5082875;28;20070;-75
2022/11/19 09:06:03;;;;;;;6.13;3.83;;;;;;;13.83;58.45;93383.81;5082704;28;20543;-75
2022/11/19 09:08:29;;;;;;;4.75;3.95;;;;;;;14.03;57.85;93392.69;5085296;28;20016;-75
2022/11/19 09:10:55;;;;;;;6.68;4.40;;;;;;;13.83;58.77;93410.53;5082389;28;20040;-75
2022/11/19 09:13:21;;;;;;;7.22;4.18;;;;;;;13.91;58.75;93403.47;5081076;28;20130;-75
2022/11/19 09:15:47;;;;;;;6.93;4.18;;;;;;;13.99;58.40;93413.19;5085720;28;20040;-75
2022/11/19 09:18:13;;;;;;;4.32;3.13;;;;;;;13.93;58.09;93403.91;5086300;28;20519;-77
2022/11/19 09:20:39;;;;;;;3.90;2.88;;;;;;;13.98;58.27;93419.69;5086123;28;20039;-74
2022/11/19 09:23:04;;;;;;;6.10;2.65;;;;;;;14.17;58.55;93417.13;5085047;28;20047;-76
2022/11/19 09:25:33;;;;;;;4.88;3.75;;;;;;;14.17;57.07;93409.09;5086156;28;20113;-76
2022/11/19 09:27:59;;;;;;;4.95;3.85;;;;;;;14.04;57.57;93397.69;5077321;28;20044;-75
2022/11/19 09:30:25;;;;;;;6.38;3.92;;;;;;;14.00;58.48;93396.03;5076973;28;20021;-75
2022/11/19 09:32:50;;;;;;;4.80;3.53;;;;;;;13.83;58.23;93393.72;5073110;28;20041;-74
2022/11/19 09:35:16;;;;;;;3.95;3.25;;;;;;;13.94;58.40;93400.88;5076395;28;20044;-74
2022/11/19 09:37:41;;;;;;;6.75;3.30;;;;;;;14.10;59.16;93393.63;5077291;28;20078;-75
2022/11/19 09:40:10;;;;;;;5.35;3.25;;;;;;;14.05;58.93;93361.03;5079343;28;20050;-74
2022/11/19 09:43:15;;;;;;;4.75;3.08;;;;;;;14.10;59.02;93377.59;5080952;28;20043;-74
2022/11/19 09:45:53;;;;;;;4.13;2.45;;;;;;;14.17;57.89;93372.44;5080366;28;20055;-76
2022/11/19 09:48:34;;;;;;;3.05;2.05;;;;;;;14.27;57.38;93365.78;5081224;28;20311;-75
2022/11/19 09:51:13;;;;;;;3.42;2.47;;;;;;;13.86;57.70;93350.25;5088099;28;20028;-76
2022/11/19 09:53:48;;;;;;;2.53;1.90;;;;;;;13.77;58.84;93347.75;5084818;28;20385;-76
2022/11/19 09:56:22;;;;;;;3.13;1.88;;;;;;;13.98;58.56;93347.50;5082905;28;20061;-75
2022/11/19 09:58:47;;;;;;;5.78;2.30;;;;;;;13.83;57.60;93310.84;5079630;28;20107;-77
2022/11/19 10:01:18;;;;;;;3.08;2.78;;;;;;;14.00;57.80;93351.38;5074717;28;20662;-76
2022/11/19 10:03:49;;;;;;;5.10;2.53;;;;;;;13.59;58.40;93299.19;5078199;28;20591;-76
2022/11/19 10:06:14;;;;;;;4.88;2.45;;;;;;;14.05;58.44;93348.44;5076316;28;20073;-75
2022/11/19 10:09:04;;;;;;;3.75;2.67;;;;;;;14.31;58.53;93334.53;5078466;28;20163;-76
2022/11/19 10:11:51;;;;;;;2.97;2.10;;;;;;;14.29;57.45;93326.06;5075876;28;20514;-75
2022/11/19 10:14:41;;;;;;;2.25;1.70;;;;;;;14.02;57.31;93318.97;5074305;28;20448;-74
2022/11/19 10:17:20;;;;;;;2.10;1.70;;;;;;;13.83;58.24;93308.97;5073211;28;20147;-73
2022/11/19 10:19:58;;;;;;;3.22;1.90;;;;;;;14.16;58.77;93324.63;5074661;28;20063;-74
2022/11/19 10:22:37;;;;;;;1.70;1.23;;;;;;;14.14;57.46;93302.81;5079833;28;20036;-75
2022/11/19 10:25:21;;;;;;;4.07;1.65;;;;;;;14.34;55.60;93325.81;5072824;28;20043;-75
2022/11/19 10:27:51;;;;;;;2.28;1.60;;;;;;;14.46;54.55;93330.28;5072266;28;20041;-74
2022/11/19 10:30:20;;;;;;;1.92;1.63;;;;;;;14.24;55.52;93325.56;5074451;28;20020;-75
2022/11/19 10:32:59;;;;;;;1.92;1.30;;;;;;;14.44;55.88;93327.94;5073763;28;20106;-73
2022/11/19 10:35:33;;;;;;;1.60;1.20;;;;;;;14.47;55.71;93319.22;5074893;28;20035;-74
2022/11/19 10:38:06;;;;;;;2.00;1.20;;;;;;;14.15;55.48;93315.84;5075890;28;20348;-74
2022/11/19 10:40:39;;;;;;;2.08;1.45;;;;;;;14.18;54.79;93303.66;5074560;28;20040;-75
2022/11/19 10:43:16;;;;;;;5.43;1.40;;;;;;;14.11;55.60;93290.13;5075106;28;20127;-75
2022/11/19 10:45:41;;;;;;;3.15;1.58;;;;;;;14.29;55.76;93304.69;5076908;28;20711;-74
2022/11/19 10:48:28;;;;;;;3.70;2.70;;;;;;;14.26;55.45;93297.38;5076864;28;20120;-74
2022/11/19 10:50:56;;;;;;;3.42;1.42;;;;;;;14.26;55.16;93302.72;5073916;28;20044;-74
2022/11/19 10:53:30;;;;;;;3.45;1.65;;;;;;;14.42;55.23;93305.38;5077610;28;20039;-75
2022/11/19 10:55:58;;;;;;;;;;;;;;;14.45;54.54;93300.09;5078603;28;20048;-75
2022/11/19 10:58:32;;;;;;;1.90;1.45;;;;;;;14.40;54.59;93305.69;5076347;28;20448;-74
2022/11/19 11:01:01;;;;;;;2.53;1.92;;;;;;;14.24;54.50;93280.09;5076489;28;20064;-74
2022/11/19 11:03:44;;;;;;;3.78;2.13;;;;;;;14.51;54.59;93296.00;5078463;28;20044;-74
2022/11/19 11:06:10;;;;;;;3.42;1.75;;;;;;;14.46;55.34;93306.22;5091113;28;20016;-75
2022/11/19 11:08:51;;;;;;;2.35;1.40;;;;;;;14.55;55.17;93290.75;5074705;28;20040;-74
2022/11/19 11:17:03;;;;;;;1.83;1.65;;;;;;;14.65;55.00;93273.38;5073674;28;20055;-75
2022/11/19 11:19:29;;;;;;;5.47;1.80;;;;;;;14.62;54.75;93258.78;5073832;28;20048;-75
2022/11/19 11:21:56;;;;;;;5.13;2.28;;;;;;;14.75;54.39;93288.88;5074893;28;20138;-75
2022/11/19 11:24:31;;;;;;;5.43;2.10;;;;;;;14.83;54.04;93287.91;5073398;28;20143;-74
2022/11/19 11:27:20;;;;;;;2.95;1.77;;;;;;;15.05;53.95;93303.28;5077020;28;20506;-74
2022/11/19 11:29:45;;;;;;;1.83;1.48;;;;;;;15.00;53.72;93285.59;5073974;28;20045;-74
2022/11/19 11:32:29;;;;;;;2.90;1.95;;;;;;;15.13;53.42;93280.06;5074394;28;20097;-74
2022/11/19 11:34:55;;;;;;;6.22;2.08;;;;;;;15.20;53.54;93281.00;5078166;28;20068;-74
2022/11/19 11:37:21;;;;;;;5.78;1.88;;;;;;;15.18;53.10;93280.56;5076107;28;20606;-75
2022/11/19 11:39:51;;;;;;;5.70;1.88;;;;;;;15.40;53.37;93282.50;5073352;28;20028;-74
2022/11/19 11:42:18;;;;;;;2.50;1.80;;;;;;;15.20;53.49;93264.94;5067186;28;20042;-73
2022/11/19 11:44:52;;;;;;;4.57;1.95;;;;;;;15.29;53.61;93262.00;5071330;28;20063;-75
2022/11/19 11:47:21;;;;;;;3.40;1.80;;;;;;;15.47;53.36;93276.53;5070364;28;20032;-76
2022/11/19 11:49:56;;;;;;;2.53;1.73;;;;;;;15.45;53.37;93284.13;5072739;28;20127;-74
2022/11/19 11:52:33;;;;;;;3.90;1.80;;;;;;;15.18;53.25;93237.72;5071121;28;20530;-75
2022/11/19 11:55:06;;;;;;;8.50;1.92;;;;;;;15.52;52.43;93278.13;5074970;28;20591;-75
2022/11/19 11:57:48;;;;;;;2.03;1.63;;;;;;;15.61;53.00;93270.63;5076866;28;20581;-75
2022/11/19 12:00:37;;;;;;;5.72;2.22;;;;;;;15.50;52.37;93240.22;5086283;28;20073;-74
2022/11/19 12:03:03;;;;;;;4.05;1.95;;;;;;;15.79;52.58;93277.09;5105034;28;20052;-74
2022/11/19 12:05:39;;;;;;;2.80;2.13;;;;;;;15.88;52.81;93277.63;5088503;28;20065;-75
2022/11/19 12:08:20;;;;;;;3.42;1.98;;;;;;;15.90;52.44;93269.97;5092732;28;20124;-75
2022/11/19 12:10:57;;;;;;;3.33;2.03;;;;;;;15.87;53.10;93284.88;5092559;28;20036;-75
2022/11/19 12:13:54;;;;;;;4.55;2.33;;;;;;;15.90;52.50;93272.66;5095540;28;20044;-75